createdAt,value
2019-05-09T00:02:00.024Z,14.32
2019-05-09T00:04:33.469Z,14.32
2019-05-09T00:07:05.151Z,14.32
2019-05-09T00:09:36.569Z,14.31
2019-05-09T00:12:08.088Z,14.30
2019-05-09T00:14:43.371Z,14.30
2019-05-09T00:17:14.927Z,14.31
2019-05-09T00:19:46.432Z,14.34
2019-05-09T00:22:18.891Z,14.30
2019-05-09T00:24:50.525Z,14.27
2019-05-09T00:27:23.184Z,14.28
2019-05-09T00:29:55.371Z,14.25
2019-05-09T00:32:30.126Z,14.21
2019-05-09T00:35:18.754Z,14.21
2019-05-09T00:38:04.475Z,14.17
2019-05-09T00:40:36.133Z,14.11
2019-05-09T00:43:09.969Z,13.99
2019-05-09T00:46:04.133Z,13.99
2019-05-09T00:48:54.046Z,14.04
2019-05-09T00:51:26.110Z,13.98
2019-05-09T00:53:57.959Z,13.96
2019-05-09T00:56:29.940Z,13.94
2019-05-09T00:59:04.255Z,13.94
2019-05-09T01:01:37.430Z,13.87
2019-05-09T01:04:09.997Z,13.81
2019-05-09T01:06:43.435Z,13.81
2019-05-09T01:09:17.111Z,13.79
2019-05-09T01:11:48.978Z,13.66
2019-05-09T01:14:23.493Z,13.65
2019-05-09T01:16:56.998Z,13.63
2019-05-09T01:19:28.694Z,13.57
2019-05-09T01:22:00.416Z,13.53
2019-05-09T01:24:33.730Z,13.54
2019-05-09T01:27:05.466Z,13.54
2019-05-09T01:29:37.024Z,13.48
2019-05-09T01:32:25.580Z,13.50
2019-05-09T01:34:57.150Z,13.48
2019-05-09T01:37:29.238Z,13.47
2019-05-09T01:40:00.711Z,13.42
2019-05-09T01:42:33.732Z,13.37
2019-05-09T01:45:07.329Z,13.38
2019-05-09T01:47:38.907Z,13.36
2019-05-09T01:50:10.590Z,13.35
2019-05-09T01:52:43.884Z,13.32
2019-05-09T01:55:16.231Z,13.33
2019-05-09T01:57:48.131Z,13.32
2019-05-09T02:00:20.563Z,13.25
2019-05-09T02:02:54.072Z,13.23
2019-05-09T02:05:26.180Z,13.20
2019-05-09T02:07:59.550Z,13.22
2019-05-09T02:10:31.079Z,13.27
2019-05-09T02:13:03.157Z,13.29
2019-05-09T02:15:53.960Z,13.27
2019-05-09T02:18:28.972Z,13.25
2019-05-09T02:21:00.687Z,13.19
2019-05-09T02:23:33.923Z,13.27
2019-05-09T02:26:05.682Z,13.28
2019-05-09T02:28:37.096Z,13.23
2019-05-09T02:31:10.609Z,13.28
2019-05-09T02:33:45.524Z,13.31
2019-05-09T02:36:18.735Z,13.36
2019-05-09T02:38:49.108Z,13.31
2019-05-09T02:41:20.703Z,13.31
2019-05-09T02:43:52.622Z,13.27
2019-05-09T02:46:41.044Z,13.32
2019-05-09T02:49:13.043Z,13.26
2019-05-09T02:51:44.904Z,13.24
2019-05-09T02:54:19.188Z,13.27
2019-05-09T02:56:49.789Z,13.30
2019-05-09T02:59:39.845Z,13.27
2019-05-09T03:02:29.446Z,13.22
2019-05-09T03:05:01.893Z,13.24
2019-05-09T03:07:49.739Z,13.23
2019-05-09T03:10:23.039Z,13.26
2019-05-09T03:12:55.295Z,13.28
2019-05-09T03:15:29.437Z,13.26
2019-05-09T03:18:01.080Z,13.25
2019-05-09T03:20:39.380Z,13.25
2019-05-09T03:23:11.158Z,13.22
2019-05-09T03:25:43.015Z,13.24
2019-05-09T03:28:33.376Z,13.25
2019-05-09T03:31:09.636Z,13.26
2019-05-09T03:33:42.653Z,13.30
2019-05-09T03:36:14.417Z,13.35
2019-05-09T03:38:47.570Z,13.42
2019-05-09T03:41:19.190Z,13.39
2019-05-09T03:43:51.452Z,13.38
2019-05-09T03:46:24.725Z,13.33
2019-05-09T03:48:58.349Z,13.33
2019-05-09T03:51:29.971Z,13.29
2019-05-09T03:54:01.368Z,13.29
2019-05-09T03:56:51.052Z,13.26
2019-05-09T03:59:22.462Z,13.33
2019-05-09T04:01:54.269Z,13.35
2019-05-09T04:04:27.943Z,13.36
2019-05-09T04:06:58.920Z,13.39
2019-05-09T04:09:30.592Z,13.42
2019-05-09T04:12:03.436Z,13.42
2019-05-09T04:14:37.542Z,13.40
2019-05-09T04:17:10.788Z,13.47
2019-05-09T04:19:42.427Z,13.46
2019-05-09T04:22:18.190Z,13.42
2019-05-09T04:24:50.960Z,13.44
2019-05-09T04:27:24.118Z,13.49
2019-05-09T04:29:57.456Z,13.46
2019-05-09T04:32:28.901Z,13.45
2019-05-09T04:35:01.844Z,13.44
2019-05-09T04:37:33.700Z,13.49
2019-05-09T04:40:08.128Z,13.54
2019-05-09T04:42:43.033Z,13.54
2019-05-09T04:45:17.729Z,13.55
2019-05-09T04:47:50.293Z,13.61
2019-05-09T04:50:24.877Z,13.50
2019-05-09T04:52:57.883Z,13.57
2019-05-09T04:55:30.170Z,13.68
2019-05-09T04:58:01.871Z,13.72
2019-05-09T05:00:51.227Z,13.67
2019-05-09T05:03:22.748Z,13.81
2019-05-09T05:05:55.124Z,13.73
2019-05-09T05:08:28.482Z,13.88
2019-05-09T05:11:00.090Z,13.82
2019-05-09T05:13:31.755Z,13.72
2019-05-09T05:16:05.328Z,13.87
2019-05-09T05:18:37.393Z,14.00
2019-05-09T05:21:09.359Z,14.02
2019-05-09T05:23:50.747Z,14.03
2019-05-09T05:26:22.881Z,14.09
2019-05-09T05:28:58.083Z,14.08
2019-05-09T05:31:29.498Z,14.00
2019-05-09T05:34:08.773Z,13.97
2019-05-09T05:36:43.219Z,13.83
2019-05-09T05:39:17.866Z,13.78
2019-05-09T05:41:59.827Z,13.84
2019-05-09T05:44:31.325Z,13.74
2019-05-09T05:47:18.015Z,13.90
2019-05-09T05:49:51.089Z,13.88
2019-05-09T05:52:24.646Z,13.83
2019-05-09T05:54:58.221Z,13.69
2019-05-09T05:57:29.681Z,13.71
2019-05-09T06:00:01.958Z,13.60
2019-05-09T06:02:34.747Z,13.62
2019-05-09T06:05:08.467Z,13.53
2019-05-09T06:07:41.793Z,13.42
2019-05-09T06:10:14.413Z,13.40
2019-05-09T06:12:51.767Z,13.38
2019-05-09T06:15:28.961Z,13.32
2019-05-09T06:18:00.566Z,13.35
2019-05-09T06:20:32.865Z,13.38
2019-05-09T06:23:05.302Z,13.36
2019-05-09T06:25:41.079Z,13.40
2019-05-09T06:28:13.564Z,13.33
2019-05-09T06:30:47.240Z,13.39
2019-05-09T06:33:20.119Z,13.48
2019-05-09T06:35:51.886Z,13.54
2019-05-09T06:38:27.613Z,13.57
2019-05-09T06:40:59.280Z,13.70
2019-05-09T06:43:39.418Z,13.86
2019-05-09T06:46:27.810Z,13.96
2019-05-09T06:49:20.128Z,13.81
2019-05-09T06:51:38.744Z,13.89
2019-05-09T06:54:11.366Z,13.72
2019-05-09T06:56:47.577Z,13.88
2019-05-09T06:59:21.429Z,13.84
2019-05-09T07:01:57.602Z,13.89
2019-05-09T07:04:33.072Z,13.95
2019-05-09T07:07:12.458Z,13.94
2019-05-09T07:09:58.738Z,14.02
2019-05-09T07:12:30.824Z,13.85
2019-05-09T07:15:03.020Z,13.75
2019-05-09T07:17:34.421Z,13.77
2019-05-09T07:20:08.392Z,14.02
2019-05-09T07:22:42.260Z,14.09
2019-05-09T07:25:18.774Z,14.17
2019-05-09T07:27:53.672Z,14.02
2019-05-09T07:30:33.100Z,14.13
2019-05-09T07:33:15.416Z,14.28
2019-05-09T07:35:48.242Z,14.36
2019-05-09T07:38:30.697Z,14.37
2019-05-09T07:41:02.187Z,14.58
2019-05-09T07:43:35.173Z,14.72
2019-05-09T07:46:09.204Z,14.42
2019-05-09T07:48:42.598Z,14.84
2019-05-09T07:51:23.642Z,14.89
2019-05-09T07:53:55.278Z,15.11
2019-05-09T07:56:28.461Z,15.42
2019-05-09T07:59:00.261Z,15.75
2019-05-09T08:01:32.076Z,15.72
2019-05-09T08:04:03.864Z,16.16
2019-05-09T08:06:37.803Z,16.30
2019-05-09T08:09:12.273Z,16.31
2019-05-09T08:11:50.985Z,15.80
2019-05-09T08:14:23.239Z,15.90
2019-05-09T08:16:58.026Z,15.93
2019-05-09T08:19:38.495Z,15.92
2019-05-09T08:22:11.581Z,15.73
2019-05-09T08:24:48.372Z,15.80
2019-05-09T08:27:20.242Z,15.61
2019-05-09T08:29:53.749Z,15.52
2019-05-09T08:32:28.590Z,15.70
2019-05-09T08:35:02.360Z,15.70
2019-05-09T08:37:34.863Z,15.41
2019-05-09T08:40:07.971Z,15.34
2019-05-09T08:42:41.854Z,15.62
2019-05-09T08:45:26.933Z,15.72
2019-05-09T08:47:48.569Z,15.80
2019-05-09T08:50:24.273Z,15.75
2019-05-09T08:52:57.633Z,15.72
2019-05-09T08:55:29.953Z,15.62
2019-05-09T08:58:02.886Z,15.27
2019-05-09T09:00:34.916Z,15.30
2019-05-09T09:03:07.964Z,15.45
2019-05-09T09:05:43.155Z,15.52
2019-05-09T09:08:12.936Z,15.52
2019-05-09T09:10:44.450Z,15.63
2019-05-09T09:13:17.578Z,15.61
2019-05-09T09:16:08.502Z,15.72
2019-05-09T09:18:24.311Z,15.94
2019-05-09T09:20:56.110Z,15.70
2019-05-09T09:23:42.834Z,15.65
2019-05-09T09:26:02.551Z,15.65
2019-05-09T09:28:37.798Z,15.18
2019-05-09T09:31:10.819Z,15.27
2019-05-09T09:33:44.485Z,15.34
2019-05-09T09:36:17.843Z,15.49
2019-05-09T09:38:53.796Z,15.35
2019-05-09T09:41:38.297Z,15.32
2019-05-09T09:44:17.909Z,15.35
2019-05-09T09:46:50.180Z,15.48
2019-05-09T09:49:21.537Z,15.31
2019-05-09T09:51:54.031Z,15.45
2019-05-09T09:54:27.936Z,15.38
2019-05-09T09:56:58.727Z,15.11
2019-05-09T09:59:37.854Z,15.09
2019-05-09T10:02:11.171Z,15.28
2019-05-09T10:04:42.610Z,14.98
2019-05-09T10:07:16.099Z,14.98
2019-05-09T10:09:53.202Z,14.89
2019-05-09T10:12:28.717Z,14.75
2019-05-09T10:15:01.393Z,14.80
2019-05-09T10:17:44.568Z,14.96
2019-05-09T10:20:32.624Z,14.99
2019-05-09T10:23:15.035Z,14.98
2019-05-09T10:25:38.471Z,14.82
2019-05-09T10:28:09.898Z,15.25
2019-05-09T10:30:41.722Z,15.36
2019-05-09T10:33:17.551Z,15.39
2019-05-09T10:35:48.973Z,15.43
2019-05-09T10:38:20.640Z,15.73
2019-05-09T10:40:53.522Z,15.70
2019-05-09T10:43:35.714Z,15.54
2019-05-09T10:46:22.949Z,15.62
2019-05-09T10:48:58.637Z,15.31
2019-05-09T10:51:30.771Z,15.14
2019-05-09T10:54:04.094Z,15.24
2019-05-09T10:56:38.369Z,15.12
2019-05-09T10:59:09.703Z,15.42
2019-05-09T11:01:49.374Z,15.65
2019-05-09T11:04:21.294Z,15.73
2019-05-09T11:06:59.638Z,15.66
2019-05-09T11:09:32.123Z,15.34
2019-05-09T11:12:07.905Z,15.17
2019-05-09T11:14:41.918Z,15.05
2019-05-09T11:17:21.416Z,14.68
2019-05-09T11:19:50.026Z,14.84
2019-05-09T11:22:23.686Z,14.34
2019-05-09T11:24:57.743Z,14.46
2019-05-09T11:27:29.471Z,14.13
2019-05-09T11:30:18.788Z,14.07
2019-05-09T11:32:50.687Z,14.03
2019-05-09T11:35:23.946Z,14.17
2019-05-09T11:37:55.660Z,14.18
2019-05-09T11:40:28.126Z,14.25
2019-05-09T11:43:01.264Z,14.26
2019-05-09T11:45:39.223Z,14.15
2019-05-09T11:48:18.657Z,14.28
2019-05-09T11:50:52.607Z,14.20
2019-05-09T11:53:35.726Z,14.02
2019-05-09T11:56:14.421Z,14.01
2019-05-09T11:58:48.128Z,14.18
2019-05-09T12:01:20.522Z,14.19
2019-05-09T12:03:53.263Z,14.38
2019-05-09T12:06:28.925Z,14.46
2019-05-09T12:09:00.176Z,14.41
2019-05-09T12:11:34.706Z,14.41
2019-05-09T12:14:08.867Z,14.32
2019-05-09T12:16:40.368Z,14.40
2019-05-09T12:19:12.146Z,14.17
2019-05-09T12:21:47.874Z,13.99
2019-05-09T12:24:19.534Z,13.85
2019-05-09T12:26:53.877Z,13.93
2019-05-09T12:29:29.364Z,14.13
2019-05-09T12:32:04.473Z,14.19
2019-05-09T12:34:37.084Z,14.16
2019-05-09T12:37:10.574Z,14.34
2019-05-09T12:39:43.226Z,14.47
2019-05-09T12:42:15.271Z,14.54
2019-05-09T12:44:49.512Z,14.64
2019-05-09T12:47:21.432Z,14.59
2019-05-09T12:49:54.635Z,14.55
2019-05-09T12:52:31.707Z,14.66
2019-05-09T12:55:03.424Z,14.75
2019-05-09T12:57:38.444Z,14.80
2019-05-09T13:00:10.779Z,14.54
2019-05-09T13:02:42.730Z,14.38
2019-05-09T13:05:14.044Z,14.27
2019-05-09T13:07:47.885Z,14.16
2019-05-09T13:10:19.702Z,14.11
2019-05-09T13:12:59.520Z,13.88
2019-05-09T13:15:32.643Z,13.84
2019-05-09T13:18:04.194Z,13.91
2019-05-09T13:20:38.212Z,13.83
2019-05-09T13:23:10.808Z,14.03
2019-05-09T13:25:42.418Z,14.20
2019-05-09T13:28:14.995Z,14.46
2019-05-09T13:30:50.026Z,14.52
2019-05-09T13:33:21.438Z,14.38
2019-05-09T13:35:53.384Z,14.22
2019-05-09T13:38:29.167Z,14.37
2019-05-09T13:41:00.848Z,14.18
2019-05-09T13:43:35.067Z,14.33
2019-05-09T13:46:09.028Z,14.25
2019-05-09T13:49:05.358Z,14.11
2019-05-09T13:51:18.082Z,14.32
2019-05-09T13:53:48.537Z,14.34
2019-05-09T13:56:20.845Z,14.43
2019-05-09T13:58:55.072Z,14.43
2019-05-09T14:01:27.963Z,14.61
2019-05-09T14:04:02.911Z,14.82
2019-05-09T14:06:38.882Z,14.97
2019-05-09T14:09:38.512Z,15.06
2019-05-09T14:12:10.677Z,15.26
2019-05-09T14:14:44.536Z,15.19
2019-05-09T14:17:19.055Z,15.13
2019-05-09T14:19:51.376Z,15.11
2019-05-09T14:22:26.141Z,14.98
2019-05-09T14:25:00.788Z,14.80
2019-05-09T14:27:32.286Z,14.62
2019-05-09T14:30:07.826Z,14.59
2019-05-09T14:32:40.488Z,14.85
2019-05-09T14:35:12.421Z,14.89
2019-05-09T14:37:45.333Z,14.89
2019-05-09T14:40:18.790Z,14.84
2019-05-09T14:42:53.322Z,14.63
2019-05-09T14:45:27.992Z,14.40
2019-05-09T14:48:00.267Z,14.32
2019-05-09T14:50:31.957Z,14.27
2019-05-09T14:53:03.437Z,14.49
2019-05-09T14:55:34.799Z,14.42
2019-05-09T14:58:07.871Z,14.28
2019-05-09T15:00:39.991Z,14.33
2019-05-09T15:03:13.672Z,14.26
2019-05-09T15:05:47.997Z,14.52
2019-05-09T15:08:19.412Z,14.39
2019-05-09T15:10:50.676Z,14.32
2019-05-09T15:13:24.139Z,14.28
2019-05-09T15:15:57.848Z,14.16
2019-05-09T15:18:30.009Z,14.00
2019-05-09T15:21:03.441Z,13.98
2019-05-09T15:23:39.185Z,13.81
2019-05-09T15:26:11.851Z,13.69
2019-05-09T15:28:44.710Z,13.69
2019-05-09T15:31:18.301Z,13.65
2019-05-09T15:33:49.884Z,13.58
2019-05-09T15:36:21.702Z,13.60
2019-05-09T15:38:53.815Z,13.63
2019-05-09T15:41:30.475Z,13.59
2019-05-09T15:44:02.219Z,13.50
2019-05-09T15:46:42.730Z,13.58
2019-05-09T15:49:14.358Z,13.62
2019-05-09T15:51:47.809Z,13.52
2019-05-09T15:54:19.433Z,13.54
2019-05-09T15:56:51.219Z,13.51
2019-05-09T15:59:22.683Z,13.43
2019-05-09T16:01:55.508Z,13.43
2019-05-09T16:04:28.504Z,13.53
2019-05-09T16:07:02.157Z,13.55
2019-05-09T16:09:34.264Z,13.51
2019-05-09T16:12:07.787Z,13.49
2019-05-09T16:14:39.890Z,13.48
2019-05-09T16:17:11.274Z,13.40
2019-05-09T16:19:42.782Z,13.29
2019-05-09T16:22:15.349Z,13.32
2019-05-09T16:24:48.580Z,13.32
2019-05-09T16:27:21.463Z,13.27
2019-05-09T16:29:52.907Z,13.34
2019-05-09T16:32:24.356Z,13.33
2019-05-09T16:34:55.924Z,13.27
2019-05-09T16:37:28.341Z,13.27
2019-05-09T16:40:00.915Z,13.29
2019-05-09T16:42:38.135Z,13.23
2019-05-09T16:45:10.115Z,13.22
2019-05-09T16:47:42.081Z,13.26
2019-05-09T16:50:14.828Z,13.19
2019-05-09T16:52:48.770Z,13.17
2019-05-09T16:55:21.108Z,13.11
2019-05-09T16:57:52.946Z,13.11
2019-05-09T17:00:42.474Z,13.06
2019-05-09T17:03:14.048Z,13.02
2019-05-09T17:05:45.451Z,12.98
2019-05-09T17:08:17.745Z,12.91
2019-05-09T17:10:53.146Z,12.91
2019-05-09T17:13:24.722Z,12.89
2019-05-09T17:15:56.406Z,12.80
2019-05-09T17:18:28.368Z,12.82
2019-05-09T17:21:17.798Z,12.78
2019-05-09T17:23:39.563Z,12.81
2019-05-09T17:26:11.634Z,12.81
2019-05-09T17:28:43.425Z,12.58
2019-05-09T17:31:14.834Z,12.76
2019-05-09T17:33:48.473Z,12.79
2019-05-09T17:36:19.459Z,12.73
2019-05-09T17:38:50.862Z,12.73
2019-05-09T17:41:22.883Z,12.66
2019-05-09T17:43:55.315Z,12.65
2019-05-09T17:46:29.176Z,12.66
2019-05-09T17:49:00.859Z,12.64
2019-05-09T17:51:36.156Z,12.64
2019-05-09T17:54:08.167Z,12.60
2019-05-09T17:56:43.165Z,12.56
2019-05-09T17:59:18.173Z,12.59
2019-05-09T18:01:48.621Z,12.55
2019-05-09T18:04:20.427Z,12.54
2019-05-09T18:06:53.100Z,12.58
2019-05-09T18:09:24.808Z,12.53
2019-05-09T18:11:57.820Z,12.58
2019-05-09T18:14:29.684Z,12.53
2019-05-09T18:17:03.843Z,12.45
2019-05-09T18:19:37.928Z,12.43
2019-05-09T18:22:09.134Z,12.37
2019-05-09T18:24:41.555Z,12.30
2019-05-09T18:27:18.130Z,12.32
2019-05-09T18:29:49.987Z,12.31
2019-05-09T18:32:27.387Z,12.25
2019-05-09T18:35:13.680Z,12.23
2019-05-09T18:37:45.422Z,12.20
2019-05-09T18:40:18.095Z,12.03
2019-05-09T18:42:50.708Z,11.90
2019-05-09T18:45:22.807Z,11.89
2019-05-09T18:47:58.249Z,11.86
2019-05-09T18:50:30.993Z,11.82
2019-05-09T18:53:02.498Z,11.71
2019-05-09T18:55:34.230Z,11.65
2019-05-09T18:58:06.965Z,11.66
2019-05-09T19:00:43.828Z,11.69
2019-05-09T19:03:15.580Z,11.66
2019-05-09T19:05:47.738Z,11.68
2019-05-09T19:08:19.553Z,11.71
2019-05-09T19:10:52.409Z,11.76
2019-05-09T19:13:24.189Z,11.74
2019-05-09T19:15:58.835Z,11.72
2019-05-09T19:18:38.048Z,11.75
2019-05-09T19:21:14.696Z,11.74
2019-05-09T19:23:51.436Z,11.76
2019-05-09T19:26:37.191Z,11.74
2019-05-09T19:29:10.516Z,11.75
2019-05-09T19:31:42.921Z,11.65
2019-05-09T19:34:14.431Z,11.57
2019-05-09T19:36:45.959Z,11.47
2019-05-09T19:39:17.304Z,11.44
2019-05-09T19:41:49.070Z,11.40
2019-05-09T19:44:24.006Z,11.35
2019-05-09T19:46:56.258Z,11.25
2019-05-09T19:49:28.969Z,11.28
2019-05-09T19:52:00.679Z,11.35
2019-05-09T19:54:32.402Z,11.36
2019-05-09T19:57:04.004Z,11.35
2019-05-09T19:59:35.599Z,11.37
2019-05-09T20:02:07.970Z,11.30
2019-05-09T20:04:39.351Z,11.27
2019-05-09T20:07:11.993Z,11.20
2019-05-09T20:10:01.548Z,11.19
2019-05-09T20:12:34.955Z,11.24
2019-05-09T20:15:09.096Z,11.17
2019-05-09T20:17:41.197Z,11.05
2019-05-09T20:20:13.130Z,11.00
2019-05-09T20:22:52.660Z,11.04
2019-05-09T20:25:18.226Z,11.05
2019-05-09T20:27:50.844Z,11.10
2019-05-09T20:30:22.947Z,11.11
2019-05-09T20:32:56.105Z,11.20
2019-05-09T20:35:27.866Z,11.24
2019-05-09T20:37:59.787Z,11.28
2019-05-09T20:40:32.412Z,11.29
2019-05-09T20:43:04.439Z,11.29
2019-05-09T20:45:36.739Z,11.31
2019-05-09T20:48:09.992Z,11.31
2019-05-09T20:50:44.580Z,11.29
2019-05-09T20:53:18.802Z,11.28
2019-05-09T20:55:50.948Z,11.29
2019-05-09T20:58:22.766Z,11.27
2019-05-09T21:00:54.389Z,11.26
2019-05-09T21:03:27.155Z,11.31
2019-05-09T21:05:58.780Z,11.32
2019-05-09T21:08:30.420Z,11.29
2019-05-09T21:11:04.512Z,11.27
2019-05-09T21:13:47.950Z,11.19
2019-05-09T21:16:11.478Z,11.17
2019-05-09T21:18:43.121Z,11.17
2019-05-09T21:21:14.649Z,11.16
2019-05-09T21:23:46.265Z,11.15
2019-05-09T21:26:20.055Z,11.02
2019-05-09T21:28:52.009Z,11.20
2019-05-09T21:31:24.320Z,11.20
2019-05-09T21:33:56.307Z,11.23
2019-05-09T21:36:30.575Z,11.22
2019-05-09T21:39:02.193Z,11.23
2019-05-09T21:41:34.939Z,11.23
2019-05-09T21:44:08.307Z,11.23
2019-05-09T21:46:40.011Z,11.25
2019-05-09T21:49:14.089Z,11.26
2019-05-09T21:51:47.053Z,11.27
2019-05-09T21:54:22.711Z,11.23
2019-05-09T21:56:54.659Z,11.18
2019-05-09T21:59:26.134Z,11.16
2019-05-09T22:01:58.305Z,11.16
2019-05-09T22:04:29.917Z,11.12
2019-05-09T22:07:01.804Z,11.13
2019-05-09T22:09:33.577Z,11.11
2019-05-09T22:12:05.958Z,11.11
2019-05-09T22:14:37.704Z,11.07
2019-05-09T22:17:13.749Z,11.08
2019-05-09T22:19:45.707Z,11.08
2019-05-09T22:22:17.388Z,11.00
2019-05-09T22:24:48.989Z,11.02
2019-05-09T22:27:21.731Z,11.11
2019-05-09T22:29:53.477Z,11.08
2019-05-09T22:32:25.244Z,11.03
2019-05-09T22:34:56.920Z,10.98
2019-05-09T22:37:28.542Z,11.02
2019-05-09T22:40:00.305Z,11.12
2019-05-09T22:42:31.883Z,11.10
2019-05-09T22:45:04.193Z,11.08
2019-05-09T22:47:35.776Z,11.13
2019-05-09T22:50:08.839Z,11.10
2019-05-09T22:52:40.817Z,11.14
2019-05-09T22:55:12.638Z,11.14
2019-05-09T22:57:44.192Z,11.15
2019-05-09T23:00:16.293Z,11.13
2019-05-09T23:02:50.940Z,11.11
2019-05-09T23:05:22.430Z,11.11
2019-05-09T23:07:54.030Z,11.15
2019-05-09T23:10:25.375Z,11.11
2019-05-09T23:12:57.357Z,11.13
2019-05-09T23:15:28.745Z,11.16
2019-05-09T23:18:00.079Z,11.14
2019-05-09T23:20:38.842Z,11.16
2019-05-09T23:23:22.245Z,11.21
2019-05-09T23:25:54.364Z,11.17
2019-05-09T23:28:27.309Z,11.17
2019-05-09T23:31:01.053Z,11.18
2019-05-09T23:33:34.197Z,11.20
2019-05-09T23:36:06.334Z,11.20
2019-05-09T23:38:39.603Z,11.23
2019-05-09T23:41:11.626Z,11.27
2019-05-09T23:43:43.333Z,11.05
2019-05-09T23:46:15.347Z,11.24
2019-05-09T23:48:47.100Z,11.35
2019-05-09T23:51:19.884Z,11.40
2019-05-09T23:53:53.897Z,11.40
2019-05-09T23:56:42.972Z,11.38
2019-05-09T23:59:32.717Z,11.39
